Terminal Aerodrome Forecast
Issued by NWS Mt. Holly, NJ

Home | Current Version | Previous Version | Text Only | Print | Product List | Glossary On
Versions: 1 2 3 4 5 6 7 8 9 10 11 12 13
000
FTUS41 KPHI 222300
TAFTTN
TAF
KTTN 222320Z 2300/2324 22005KT P6SM FEW060
      TEMPO 2308/2312 3SM BR BKN015
     FM231300 24008KT P6SM SCT040 PROB30 2321/2324 5SM -TSRA
      BKN035CB=

USA.gov is the U.S. government's official web portal to all federal, state and local government web resources and services.